Time;durP1;ratioP1;P1;durP2;ratioP2;P2;SDS_P1;SDS_P2;PMS_P1;PMS_P2;Temp;Humidity;BMP_temperature;BMP_pressure;BME280_temperature;BME280_humidity;BME280_pressure;Samples;Min_cycle;Max_cycle;Signal;HPM_P1;HPM_P2
2023/01/01 00:02:06;;;;;;;59.85;30.40;;;;;;;14.36;80.92;100162.81;4950378;28;20058;-84
2023/01/01 00:04:33;;;;;;;26.95;15.05;;;;;;;14.47;79.52;100183.66;4954037;28;20051;-82
2023/01/01 00:07:00;;;;;;;30.27;16.48;;;;;;;14.50;79.19;100183.50;4951170;28;20135;-82
2023/01/01 00:12:12;;;;;;;27.13;16.70;;;;;;;14.43;80.18;100176.69;4961922;28;20050;-83
2023/01/01 00:14:41;;;;;;;16.17;10.00;;;;;;;14.43;79.17;100179.34;4956130;28;20449;-82
2023/01/01 00:17:08;;;;;;;13.85;8.52;;;;;;;14.49;78.53;100171.16;4947008;28;20079;-82
2023/01/01 00:19:34;;;;;;;18.25;10.82;;;;;;;14.50;78.82;100182.63;4935062;28;20046;-82
2023/01/01 00:22:01;;;;;;;19.05;11.60;;;;;;;14.44;78.35;100175.75;4940936;28;20117;-84
2023/01/01 00:24:48;;;;;;;14.70;10.07;;;;;;;14.46;77.81;100189.00;4944979;28;20137;-82
2023/01/01 00:27:14;;;;;;;9.48;6.70;;;;;;;14.46;78.00;100195.22;4946228;28;20057;-82
2023/01/01 00:29:41;;;;;;;12.25;7.40;;;;;;;14.50;77.72;100195.94;4954208;28;20191;-83
2023/01/01 00:32:08;;;;;;;12.02;9.18;;;;;;;14.51;76.82;100206.50;4957272;28;20054;-81
2023/01/01 00:34:37;;;;;;;11.15;7.03;;;;;;;14.50;76.96;100195.94;4964674;28;21413;-82
2023/01/01 00:37:04;;;;;;;16.40;10.10;;;;;;;14.56;75.75;100208.97;4939788;28;20097;-81
2023/01/01 00:39:30;;;;;;;18.80;14.05;;;;;;;14.55;77.10;100194.81;4965368;28;20512;-82
2023/01/01 00:41:57;;;;;;;7.97;4.43;;;;;;;14.57;74.56;100200.06;4948131;28;20417;-83
2023/01/01 00:44:23;;;;;;;12.30;7.53;;;;;;;14.61;74.15;100191.00;4941648;28;20050;-82
2023/01/01 00:46:50;;;;;;;11.82;8.23;;;;;;;14.59;75.15;100199.03;4933238;28;20047;-83
2023/01/01 00:49:17;;;;;;;9.10;5.18;;;;;;;14.55;73.93;100209.91;4957371;28;20045;-82
2023/01/01 00:51:44;;;;;;;9.27;5.70;;;;;;;14.52;74.55;100197.56;4973995;28;20046;-84
2023/01/01 00:54:11;;;;;;;9.73;6.55;;;;;;;14.51;74.75;100209.16;4968163;28;20043;-83
2023/01/01 00:56:37;;;;;;;11.43;6.63;;;;;;;14.46;74.39;100202.28;4952044;28;20047;-82
2023/01/01 00:59:04;;;;;;;20.30;10.23;;;;;;;14.46;74.24;100211.16;4963591;28;20468;-83
2023/01/01 01:01:33;;;;;;;27.27;17.35;;;;;;;14.44;74.67;100215.63;4960080;28;20043;-82
2023/01/01 01:04:02;;;;;;;13.05;8.38;;;;;;;14.38;74.81;100215.91;4935790;28;20406;-84
2023/01/01 01:06:29;;;;;;;11.70;8.07;;;;;;;14.41;76.46;100214.91;4954825;28;20043;-82
2023/01/01 01:08:55;;;;;;;11.65;7.03;;;;;;;14.38;75.63;100215.91;4951396;28;20067;-83
2023/01/01 01:11:23;;;;;;;8.52;4.65;;;;;;;14.40;75.47;100230.00;4935336;28;20082;-83
2023/01/01 01:13:52;;;;;;;6.00;4.45;;;;;;;14.46;74.09;100236.84;4952443;28;20039;-83
2023/01/01 01:16:22;;;;;;;10.00;4.75;;;;;;;14.44;73.95;100223.59;4952022;28;20074;-85
2023/01/01 01:18:51;;;;;;;8.95;4.70;;;;;;;14.48;73.56;100222.59;4950251;28;20089;-85
2023/01/01 01:21:19;;;;;;;7.68;3.85;;;;;;;14.50;73.22;100218.06;4943055;28;20051;-83
2023/01/01 01:23:47;;;;;;;7.70;4.05;;;;;;;14.54;72.96;100238.25;4937544;28;20092;-82
2023/01/01 01:26:22;;;;;;;6.65;4.18;;;;;;;14.56;74.05;100235.53;4934103;28;20054;-85
2023/01/01 01:28:49;;;;;;;9.27;4.57;;;;;;;14.48;74.08;100227.03;4960672;28;20049;-81
2023/01/01 01:31:18;;;;;;;10.77;4.28;;;;;;;14.54;73.19;100237.38;4981206;28;20138;-82
2023/01/01 01:33:45;;;;;;;9.02;4.18;;;;;;;14.56;73.55;100236.41;4953423;28;20047;-83
2023/01/01 01:36:13;;;;;;;7.60;3.83;;;;;;;14.53;73.03;100236.50;4952768;28;20050;-83
2023/01/01 01:38:40;;;;;;;8.30;3.75;;;;;;;14.53;72.44;100236.50;4935760;28;20039;-83
2023/01/01 01:41:07;;;;;;;8.65;4.97;;;;;;;14.50;72.19;100215.41;4956235;28;20075;-81
2023/01/01 01:43:55;;;;;;;6.60;3.80;;;;;;;14.46;73.65;100239.50;4959807;28;20057;-80
2023/01/01 01:46:26;;;;;;;5.43;3.67;;;;;;;14.37;73.55;100219.47;4950679;28;20049;-82
2023/01/01 01:48:54;;;;;;;7.45;3.30;;;;;;;14.35;72.20;100218.69;4972444;28;20114;-85
2023/01/01 01:51:29;;;;;;;7.18;3.30;;;;;;;14.26;73.94;100216.41;4949807;28;20118;-84
2023/01/01 01:53:59;;;;;;;7.20;3.60;;;;;;;14.24;73.16;100223.59;4949281;28;20042;-82
2023/01/01 01:56:31;;;;;;;6.03;3.63;;;;;;;14.14;75.03;100225.78;4950489;28;20046;-84
2023/01/01 01:58:57;;;;;;;5.32;3.30;;;;;;;14.12;74.11;100219.66;4955995;28;20045;-81
2023/01/01 02:01:25;;;;;;;6.13;3.13;;;;;;;14.21;73.92;100229.03;4948380;28;22577;-86
2023/01/01 02:03:59;;;;;;;7.13;2.70;;;;;;;14.10;74.92;100229.47;4953055;28;20056;-83
2023/01/01 02:06:28;;;;;;;10.02;3.42;;;;;;;14.05;74.18;100236.78;4938021;28;20050;-84
2023/01/01 02:08:56;;;;;;;7.85;3.67;;;;;;;13.96;74.89;100239.84;4941419;28;20129;-86
2023/01/01 02:11:23;;;;;;;5.95;3.17;;;;;;;13.97;74.74;100236.25;4947527;28;20039;-86
2023/01/01 02:13:50;;;;;;;5.97;2.97;;;;;;;13.98;74.43;100244.16;4947081;28;20465;-84
2023/01/01 02:16:25;;;;;;;6.90;3.35;;;;;;;13.89;75.10;100252.50;4946591;28;20042;-83
2023/01/01 02:19:10;;;;;;;6.32;2.85;;;;;;;13.94;74.60;100252.28;4955663;28;20045;-84
2023/01/01 02:22:05;;;;;;;9.38;3.40;;;;;;;13.98;74.66;100241.50;4957856;28;20073;-84
2023/01/01 02:24:56;;;;;;;5.65;3.10;;;;;;;13.86;75.00;100238.47;4967670;28;20047;-83
2023/01/01 02:27:34;;;;;;;7.22;3.00;;;;;;;13.86;75.04;100255.25;4951428;28;20038;-84
2023/01/01 02:30:04;;;;;;;4.68;3.08;;;;;;;13.93;75.30;100258.53;4954781;28;20105;-83
2023/01/01 02:32:40;;;;;;;7.68;3.38;;;;;;;13.91;74.79;100255.94;4960232;28;20042;-84
2023/01/01 02:35:45;;;;;;;7.85;2.95;;;;;;;13.99;74.26;100248.53;4949864;28;20054;-83
2023/01/01 02:38:21;;;;;;;8.50;3.28;;;;;;;13.98;72.59;100252.13;4952608;28;20653;-84
2023/01/01 02:40:49;;;;;;;7.45;3.13;;;;;;;13.98;74.09;100248.59;4953725;28;20038;-86
2023/01/01 02:43:16;;;;;;;9.07;4.00;;;;;;;14.02;73.36;100239.56;4933418;28;20494;-84
2023/01/01 02:45:50;;;;;;;;;;;;;;;14.07;72.52;100242.91;4928266;28;20480;-84
2023/01/01 02:48:47;;;;;;;7.00;4.03;;;;;;;14.08;72.34;100229.56;4948481;28;19965;-81
2023/01/01 02:51:23;;;;;;;5.65;3.20;;;;;;;14.02;73.56;100215.66;4947165;28;20059;-83
2023/01/01 02:54:18;;;;;;;4.72;3.13;;;;;;;14.06;71.57;100215.47;4981797;28;20039;-83
2023/01/01 02:56:47;;;;;;;6.97;3.30;;;;;;;14.15;71.10;100221.34;4948813;28;20039;-82
2023/01/01 03:02:22;;;;;;;7.00;3.47;;;;;;;14.11;71.75;100206.44;4959844;28;20046;-84
2023/01/01 03:05:17;;;;;;;8.10;3.55;;;;;;;14.16;71.07;100207.97;4947626;28;20105;-84
2023/01/01 03:07:55;;;;;;;9.18;4.13;;;;;;;14.15;71.52;100208.91;4959171;28;20109;-85
2023/01/01 03:10:41;;;;;;;6.38;3.47;;;;;;;14.08;71.82;100213.63;4962159;28;20043;-84
2023/01/01 03:13:25;;;;;;;6.50;3.10;;;;;;;14.15;70.48;100222.19;4956061;28;20046;-83
2023/01/01 03:16:01;;;;;;;7.25;3.63;;;;;;;14.16;71.20;100231.03;4958163;28;20868;-85
2023/01/01 03:18:50;;;;;;;7.85;3.55;;;;;;;14.13;70.40;100232.03;4932449;28;20705;-82
2023/01/01 03:21:21;;;;;;;8.43;3.50;;;;;;;14.11;70.58;100239.19;4960809;28;20418;-81
2023/01/01 03:23:48;;;;;;;7.15;3.72;;;;;;;14.09;70.86;100236.59;4931482;28;20512;-83
2023/01/01 03:26:16;;;;;;;8.43;3.67;;;;;;;14.10;71.78;100237.44;4945201;28;20569;-84
2023/01/01 03:28:47;;;;;;;11.80;4.43;;;;;;;14.06;70.77;100247.34;4944463;28;20065;-83
2023/01/01 03:31:17;;;;;;;7.78;3.80;;;;;;;14.02;70.93;100256.34;4923152;28;20402;-84
2023/01/01 03:33:47;;;;;;;7.20;3.83;;;;;;;14.08;70.37;100250.81;4945560;28;20054;-84
2023/01/01 03:36:23;;;;;;;8.70;3.30;;;;;;;14.08;70.00;100250.81;4930586;28;20909;-83
2023/01/01 03:38:55;;;;;;;6.32;3.47;;;;;;;14.04;70.97;100243.00;4942100;28;20049;-82
2023/01/01 03:41:27;;;;;;;5.15;3.15;;;;;;;14.05;70.65;100261.56;4944587;28;20035;-85
2023/01/01 03:44:28;;;;;;;8.32;3.75;;;;;;;14.13;69.26;100252.41;4947092;28;20043;-83
2023/01/01 03:46:55;;;;;;;6.88;3.60;;;;;;;14.05;70.04;100256.25;4945299;28;20058;-84
2023/01/01 03:49:22;;;;;;;7.80;4.63;;;;;;;14.14;68.61;100262.13;4959133;28;20482;-85
2023/01/01 03:52:01;;;;;;;7.78;3.38;;;;;;;14.13;69.77;100258.59;4927953;28;20046;-84
2023/01/01 03:54:40;;;;;;;5.05;3.10;;;;;;;14.11;69.30;100231.19;4961285;28;20035;-84
2023/01/01 03:57:12;;;;;;;8.00;3.97;;;;;;;14.13;69.55;100241.78;4956264;28;20047;-83
2023/01/01 03:59:52;;;;;;;6.50;3.28;;;;;;;14.16;70.33;100262.91;4942248;28;20038;-84
2023/01/01 04:02:21;;;;;;;6.75;3.55;;;;;;;14.20;68.85;100254.72;4955784;28;20050;-84
2023/01/01 04:04:48;;;;;;;6.82;3.42;;;;;;;14.21;68.98;100255.59;4944437;28;20110;-84
2023/01/01 04:07:15;;;;;;;6.20;3.92;;;;;;;14.19;68.63;100268.09;4946001;28;20066;-86
2023/01/01 04:09:46;;;;;;;7.82;3.70;;;;;;;14.14;69.52;100264.78;4933575;28;20421;-84
2023/01/01 04:12:14;;;;;;;9.27;4.05;;;;;;;14.13;69.09;100271.88;4948314;28;20043;-85
2023/01/01 04:14:42;;;;;;;9.48;4.18;;;;;;;14.14;68.42;100270.09;4947608;28;20093;-85
2023/01/01 04:17:10;;;;;;;6.88;3.05;;;;;;;14.15;69.36;100278.00;4947423;28;20065;-84
2023/01/01 04:19:37;;;;;;;9.40;3.40;;;;;;;14.13;69.77;100281.66;4948120;28;20529;-85
2023/01/01 04:22:07;;;;;;;7.57;3.72;;;;;;;14.18;68.45;100267.22;4948579;28;20101;-84
2023/01/01 04:24:39;;;;;;;7.15;3.10;;;;;;;14.20;69.32;100275.97;4934138;28;20035;-85
2023/01/01 04:27:07;;;;;;;8.05;3.55;;;;;;;14.17;69.01;100273.47;4947392;28;20050;-84
2023/01/01 04:29:35;;;;;;;6.05;3.17;;;;;;;14.22;68.41;100267.97;4963275;28;20137;-83
2023/01/01 04:32:01;;;;;;;8.68;4.25;;;;;;;14.22;69.49;100267.97;4961057;28;22337;-84
2023/01/01 04:34:28;;;;;;;6.43;3.20;;;;;;;14.24;68.16;100276.75;4944341;28;20060;-84
2023/01/01 04:36:55;;;;;;;10.00;3.13;;;;;;;14.20;67.95;100275.97;4948086;28;20053;-81
2023/01/01 04:39:22;;;;;;;5.60;2.75;;;;;;;14.22;68.23;100284.78;4947490;28;20058;-83
2023/01/01 04:41:51;;;;;;;7.30;3.30;;;;;;;14.28;68.93;100271.22;4979458;28;20406;-83
2023/01/01 04:44:18;;;;;;;7.38;3.33;;;;;;;14.29;68.11;100282.72;4960833;28;20403;-84
2023/01/01 04:46:45;;;;;;;10.98;3.28;;;;;;;14.32;68.06;100301.19;4957313;28;20050;-84
2023/01/01 04:49:11;;;;;;;7.55;3.22;;;;;;;14.29;67.71;100288.91;4942499;28;20131;-86
2023/01/01 04:51:38;;;;;;;7.47;3.10;;;;;;;14.38;67.31;100290.31;4959774;28;20043;-83
2023/01/01 04:54:08;;;;;;;7.25;3.08;;;;;;;14.29;68.26;100288.03;4957980;28;20097;-83
2023/01/01 04:56:35;;;;;;;7.85;3.10;;;;;;;14.22;68.33;100292.75;4949784;28;20047;-82
2023/01/01 04:59:01;;;;;;;9.43;3.92;;;;;;;14.31;67.85;100289.72;4939751;28;20043;-83
2023/01/01 05:01:28;;;;;;;7.55;3.30;;;;;;;14.30;67.93;100303.06;4957951;28;20035;-85
2023/01/01 05:03:57;;;;;;;6.85;3.10;;;;;;;14.31;66.96;100291.50;4973540;28;20039;-84
2023/01/01 05:06:24;;;;;;;6.85;3.65;;;;;;;14.25;67.74;100300.59;4961567;28;20038;-84
2023/01/01 05:08:55;;;;;;;6.55;3.33;;;;;;;14.25;68.09;100297.06;4953776;28;20043;-83
2023/01/01 05:11:25;;;;;;;6.30;3.10;;;;;;;14.22;68.76;100297.19;4970845;28;20050;-85
2023/01/01 05:13:53;;;;;;;7.75;3.40;;;;;;;14.15;69.38;100282.44;4971713;28;20042;-82
2023/01/01 05:16:25;;;;;;;9.85;3.72;;;;;;;14.20;68.10;100283.09;4975671;28;20042;-82
2023/01/01 05:18:55;;;;;;;5.53;2.75;;;;;;;14.14;68.94;100294.00;4980846;28;20066;-84
2023/01/01 05:21:33;;;;;;;9.55;3.17;;;;;;;14.06;68.83;100289.84;4975164;28;20039;-83
2023/01/01 05:24:02;;;;;;;6.60;3.53;;;;;;;14.09;68.25;100287.06;4959782;28;20043;-82
2023/01/01 05:26:31;;;;;;;4.25;3.10;;;;;;;14.09;67.90;100302.13;4960199;28;20047;-85
2023/01/01 05:29:00;;;;;;;7.45;3.45;;;;;;;14.05;67.72;100281.94;4961334;28;20043;-83
2023/01/01 05:31:32;;;;;;;6.50;2.95;;;;;;;14.07;67.80;100290.72;4957272;28;20129;-84
2023/01/01 05:34:03;;;;;;;7.93;3.40;;;;;;;14.10;66.81;100303.84;4971030;28;20046;-83
2023/01/01 05:36:31;;;;;;;8.85;3.08;;;;;;;14.10;67.19;100303.84;4961466;28;20059;-83
2023/01/01 05:39:01;;;;;;;7.00;3.42;;;;;;;14.08;67.12;100305.72;4963097;28;20047;-83
2023/01/01 05:41:29;;;;;;;6.97;3.15;;;;;;;14.11;66.45;100302.06;4943957;28;20097;-84
2023/01/01 05:43:56;;;;;;;6.10;2.88;;;;;;;14.01;67.85;100312.19;4954908;28;20506;-83
2023/01/01 05:46:24;;;;;;;7.55;3.65;;;;;;;14.02;66.98;100309.47;4940719;28;20134;-83
2023/01/01 05:48:52;;;;;;;6.03;3.63;;;;;;;14.00;67.18;100306.03;4962087;28;20054;-82
2023/01/01 05:51:20;;;;;;;6.57;3.33;;;;;;;13.98;67.06;100321.16;4947662;28;20097;-83
2023/01/01 05:53:47;;;;;;;6.05;3.30;;;;;;;13.97;66.64;100310.63;4948716;28;20046;-83
2023/01/01 05:56:15;;;;;;;6.22;2.88;;;;;;;14.01;67.09;100315.72;4981467;28;20039;-83
2023/01/01 05:58:42;;;;;;;4.88;3.25;;;;;;;14.04;64.99;100304.09;4977338;28;20042;-83
2023/01/01 06:01:23;;;;;;;6.10;2.83;;;;;;;14.10;64.33;100327.78;4963072;28;20046;-83
2023/01/01 06:03:54;;;;;;;6.18;3.22;;;;;;;14.08;65.55;100330.50;4956301;28;20063;-85
2023/01/01 06:06:27;;;;;;;7.50;3.45;;;;;;;14.07;65.59;100326.13;4967720;28;20039;-84
2023/01/01 06:08:59;;;;;;;4.90;2.67;;;;;;;14.04;65.76;100331.56;4954100;28;20054;-84
2023/01/01 06:11:29;;;;;;;6.72;3.50;;;;;;;13.98;65.50;100321.16;4975635;28;20294;-85
2023/01/01 06:13:59;;;;;;;7.43;3.60;;;;;;;14.02;65.43;100329.88;4969288;28;20035;-86
2023/01/01 06:16:27;;;;;;;5.93;3.40;;;;;;;14.05;64.67;100341.25;4944105;28;20465;-86
2023/01/01 06:18:54;;;;;;;6.45;3.35;;;;;;;14.01;64.79;100334.31;4959089;28;20058;-83
2023/01/01 06:21:25;;;;;;;5.68;3.00;;;;;;;14.00;65.68;100340.56;4941823;28;20469;-84
2023/01/01 06:23:54;;;;;;;8.02;3.05;;;;;;;13.93;65.54;100338.19;4964926;28;20042;-85
2023/01/01 06:26:24;;;;;;;5.28;3.05;;;;;;;13.92;65.40;100337.34;4965290;28;20043;-84
2023/01/01 06:28:51;;;;;;;5.72;3.92;;;;;;;13.86;65.87;100339.38;4977229;28;20050;-85
2023/01/01 06:31:23;;;;;;;6.28;3.10;;;;;;;13.86;66.31;100334.91;4970699;28;20046;-84
2023/01/01 06:33:50;;;;;;;7.35;3.97;;;;;;;13.87;66.48;100333.97;4961757;28;20038;-85
2023/01/01 06:36:19;;;;;;;5.75;3.10;;;;;;;13.87;65.14;100331.31;4951050;28;20561;-84
2023/01/01 06:38:51;;;;;;;8.63;3.58;;;;;;;13.83;66.10;100340.34;4965567;28;20039;-85
2023/01/01 06:41:23;;;;;;;5.95;3.15;;;;;;;13.77;66.38;100341.44;4957399;28;20042;-84
2023/01/01 06:43:49;;;;;;;8.15;3.33;;;;;;;13.71;66.89;100325.78;4946853;28;20046;-84
2023/01/01 06:46:30;;;;;;;6.22;3.40;;;;;;;13.67;66.86;100333.91;4964406;28;20043;-84
2023/01/01 06:49:08;;;;;;;8.50;3.53;;;;;;;13.71;66.65;100341.72;4959713;28;20034;-84
2023/01/01 06:51:39;;;;;;;10.02;3.72;;;;;;;13.67;66.25;100336.56;4976889;28;20051;-84
2023/01/01 06:54:06;;;;;;;4.32;3.13;;;;;;;13.71;67.09;100352.31;4940270;29;20055;-83
2023/01/01 06:56:33;;;;;;;6.50;3.45;;;;;;;13.65;66.89;100347.25;4988464;28;20038;-84
2023/01/01 06:59:04;;;;;;;9.45;3.95;;;;;;;13.66;67.04;100348.09;4949286;28;20049;-84
2023/01/01 07:01:34;;;;;;;9.85;3.42;;;;;;;13.64;67.03;100345.50;4965508;28;20070;-81
2023/01/01 07:04:04;;;;;;;4.80;2.83;;;;;;;13.58;67.08;100348.41;4959899;28;20053;-82
2023/01/01 07:06:32;;;;;;;6.47;3.58;;;;;;;13.58;67.61;100359.00;4952466;28;20047;-85
2023/01/01 07:09:02;;;;;;;8.77;3.90;;;;;;;13.62;67.03;100358.00;4964585;28;20051;-85
2023/01/01 07:11:29;;;;;;;9.38;3.47;;;;;;;13.69;65.55;100370.06;4960580;28;20049;-86
2023/01/01 07:13:58;;;;;;;5.40;3.53;;;;;;;13.74;65.43;100375.22;4942033;28;20058;-83
2023/01/01 07:16:25;;;;;;;7.28;3.47;;;;;;;13.72;66.24;100382.41;4951565;28;20035;-83
2023/01/01 07:18:52;;;;;;;7.00;3.70;;;;;;;13.65;66.36;100397.69;4954922;28;20069;-83
2023/01/01 07:21:27;;;;;;;9.77;3.67;;;;;;;13.64;66.14;100406.56;4957440;28;20093;-86
2023/01/01 07:24:00;;;;;;;10.30;3.92;;;;;;;13.58;67.29;100396.16;4970558;28;20097;-84
2023/01/01 07:26:28;;;;;;;6.82;3.67;;;;;;;13.52;67.75;100399.91;4976366;28;20050;-86
2023/01/01 07:28:55;;;;;;;5.03;3.17;;;;;;;13.49;67.94;100417.75;4932151;29;20050;-84
2023/01/01 07:31:31;;;;;;;6.60;3.40;;;;;;;13.46;67.43;100424.03;4942466;28;20047;-84
2023/01/01 07:33:58;;;;;;;7.82;4.05;;;;;;;13.48;67.56;100411.56;4947354;28;20145;-85
2023/01/01 07:36:25;;;;;;;10.32;3.78;;;;;;;13.53;67.83;100406.94;4941941;28;20039;-82
2023/01/01 07:38:51;;;;;;;7.38;4.30;;;;;;;13.57;68.09;100413.03;4941117;28;20092;-86
2023/01/01 07:41:18;;;;;;;5.80;3.42;;;;;;;13.55;67.25;100419.31;4941232;28;20047;-84
2023/01/01 07:43:45;;;;;;;4.57;3.05;;;;;;;13.60;66.62;100430.63;4962992;28;20129;-84
2023/01/01 07:46:15;;;;;;;7.82;3.40;;;;;;;13.64;66.27;100443.72;4964281;28;20125;-84
2023/01/01 07:48:41;;;;;;;7.90;3.72;;;;;;;13.69;66.17;100440.91;4977597;28;20046;-84
2023/01/01 07:51:11;;;;;;;5.97;3.08;;;;;;;13.69;66.54;100446.19;4948501;28;20051;-84
2023/01/01 07:53:41;;;;;;;5.88;3.20;;;;;;;13.71;66.21;100426.66;4948907;28;20060;-85
2023/01/01 07:56:07;;;;;;;7.82;3.97;;;;;;;13.69;66.63;100444.41;4942058;28;20137;-82
2023/01/01 07:58:39;;;;;;;8.10;3.28;;;;;;;13.69;66.14;100451.50;4958069;28;20031;-81
2023/01/01 08:01:09;;;;;;;8.45;3.00;;;;;;;13.63;67.41;100454.41;4944423;28;20050;-83
2023/01/01 08:03:35;;;;;;;4.00;2.60;;;;;;;13.60;66.90;100451.84;4958560;28;20034;-81
2023/01/01 08:06:10;;;;;;;4.47;3.42;;;;;;;13.63;66.42;100455.28;4958568;28;20847;-82
2023/01/01 08:08:36;;;;;;;;;;;;;;;13.68;66.78;100463.94;4973157;28;20402;-83
2023/01/01 08:11:04;;;;;;;4.75;3.45;;;;;;;13.71;66.71;100468.28;4943085;28;19922;-84
2023/01/01 08:13:30;;;;;;;6.85;3.40;;;;;;;13.75;65.26;100469.88;4965741;28;20042;-83
2023/01/01 08:15:57;;;;;;;6.80;3.13;;;;;;;13.79;65.87;100460.91;4972488;28;20124;-83
2023/01/01 08:18:24;;;;;;;5.93;3.00;;;;;;;13.83;65.64;100461.63;4955406;28;20094;-82
2023/01/01 08:20:52;;;;;;;5.78;3.47;;;;;;;13.85;65.96;100468.63;4956553;28;20094;-82
2023/01/01 08:23:18;;;;;;;7.45;4.03;;;;;;;13.87;65.25;100455.28;4972325;28;20042;-82
2023/01/01 08:25:45;;;;;;;4.32;3.03;;;;;;;13.88;65.71;100468.53;4957433;28;20057;-84
2023/01/01 08:28:12;;;;;;;7.07;2.97;;;;;;;13.85;66.39;100463.31;4945462;28;20233;-83
2023/01/01 08:30:41;;;;;;;4.78;3.03;;;;;;;13.87;66.95;100471.22;4939745;28;20062;-85
2023/01/01 08:33:07;;;;;;;5.97;3.45;;;;;;;13.88;66.66;100475.63;4942649;28;20050;-81
2023/01/01 08:35:36;;;;;;;6.32;3.95;;;;;;;13.96;65.04;100492.16;4956498;28;20070;-83
2023/01/01 08:38:03;;;;;;;9.00;4.10;;;;;;;14.01;65.04;100480.41;4955397;28;20493;-83
2023/01/01 08:40:30;;;;;;;4.65;2.97;;;;;;;13.99;65.74;100474.28;4958729;28;20047;-82
2023/01/01 08:42:56;;;;;;;6.38;4.03;;;;;;;14.02;66.37;100476.81;4950076;28;20098;-83
2023/01/01 08:45:23;;;;;;;5.97;3.78;;;;;;;14.01;66.43;100466.25;4953302;28;20169;-84
2023/01/01 08:47:50;;;;;;;9.35;4.72;;;;;;;14.03;66.91;100475.03;4942449;28;20039;-83
2023/01/01 08:50:16;;;;;;;5.10;3.47;;;;;;;14.03;66.63;100489.19;4955075;28;20541;-82
2023/01/01 08:52:43;;;;;;;7.85;4.10;;;;;;;14.08;66.35;100484.56;4955500;28;20042;-83
2023/01/01 08:55:10;;;;;;;8.27;4.32;;;;;;;14.11;67.08;100490.69;4945779;28;20043;-82
2023/01/01 08:57:36;;;;;;;5.07;3.33;;;;;;;14.12;66.36;100490.63;4972021;28;20039;-81
2023/01/01 09:00:04;;;;;;;4.88;3.00;;;;;;;14.21;65.80;100495.63;4978362;28;20058;-83
2023/01/01 09:02:31;;;;;;;9.75;3.85;;;;;;;14.25;65.75;100512.28;4972483;28;20042;-81
2023/01/01 09:04:57;;;;;;;8.90;3.47;;;;;;;14.29;65.43;100511.22;4941282;28;20043;-81
2023/01/01 09:07:24;;;;;;;6.78;3.45;;;;;;;14.34;65.81;100511.94;4955706;28;20035;-83
2023/01/01 09:09:51;;;;;;;7.10;3.67;;;;;;;14.34;66.01;100515.47;4959137;28;20074;-83
2023/01/01 09:12:17;;;;;;;7.05;4.47;;;;;;;14.28;65.66;100528.09;4933533;28;20414;-82
2023/01/01 09:14:47;;;;;;;5.28;3.50;;;;;;;14.43;65.39;100539.97;4937129;28;20133;-81
2023/01/01 09:17:14;;;;;;;6.97;3.28;;;;;;;14.45;65.12;100535.44;4944797;28;20043;-80
2023/01/01 09:19:41;;;;;;;6.80;3.10;;;;;;;14.43;65.11;100551.44;4961198;28;20489;-81
2023/01/01 09:22:11;;;;;;;7.15;3.38;;;;;;;14.53;65.09;100562.63;4955815;28;20042;-80
2023/01/01 09:24:38;;;;;;;5.82;3.88;;;;;;;14.49;65.49;100561.03;4959644;28;20125;-81
2023/01/01 09:27:04;;;;;;;5.53;3.33;;;;;;;14.61;64.06;100553.44;4938921;29;20066;-80
2023/01/01 09:29:31;;;;;;;5.22;3.65;;;;;;;14.61;65.07;100564.06;4966743;28;20058;-81
2023/01/01 09:31:58;;;;;;;4.80;3.20;;;;;;;14.63;64.99;100575.53;4943694;28;20050;-79
2023/01/01 09:34:24;;;;;;;5.93;3.30;;;;;;;14.62;64.69;100571.13;4958071;28;20383;-81
2023/01/01 09:36:51;;;;;;;6.82;3.88;;;;;;;14.66;65.04;100579.84;4959985;28;20046;-81
2023/01/01 09:39:18;;;;;;;10.50;4.13;;;;;;;14.67;64.72;100583.38;4958582;28;20047;-81
2023/01/01 09:42:26;;;;;;;8.30;3.65;;;;;;;14.64;65.40;100582.59;4960290;28;20051;-82
2023/01/01 09:45:04;;;;;;;8.00;4.57;;;;;;;14.60;65.72;100578.28;4978144;28;20050;-82
2023/01/01 09:47:35;;;;;;;6.18;3.80;;;;;;;14.59;65.90;100581.00;4960617;28;20067;-81
2023/01/01 09:50:12;;;;;;;5.43;3.50;;;;;;;14.57;66.58;100593.50;4961935;28;20031;-80
2023/01/01 09:52:48;;;;;;;8.90;3.78;;;;;;;14.59;66.82;100579.22;4960809;28;20145;-80
2023/01/01 09:55:29;;;;;;;8.30;4.00;;;;;;;14.49;66.40;100590.28;4959597;28;20070;-81
2023/01/01 09:57:56;;;;;;;6.32;4.13;;;;;;;14.60;65.57;100583.59;4965713;28;20035;-82
2023/01/01 10:00:23;;;;;;;8.20;3.75;;;;;;;14.54;66.14;100594.47;4965637;28;20038;-82
2023/01/01 10:03:03;;;;;;;6.97;3.63;;;;;;;14.56;66.12;100592.63;4945765;28;20042;-83
2023/01/01 10:05:45;;;;;;;7.72;3.85;;;;;;;14.59;65.73;100599.63;4958027;28;20054;-82
2023/01/01 10:08:22;;;;;;;6.93;3.97;;;;;;;14.60;65.72;100594.25;4963017;28;20049;-82
2023/01/01 10:10:59;;;;;;;7.30;4.15;;;;;;;14.56;66.35;100602.41;4966586;28;20031;-82
2023/01/01 10:13:30;;;;;;;4.93;3.47;;;;;;;14.53;66.20;100598.06;4957380;28;20060;-83
2023/01/01 10:16:00;;;;;;;7.53;4.57;;;;;;;14.39;66.84;100599.47;4963114;28;20573;-81
2023/01/01 10:18:36;;;;;;;6.70;3.95;;;;;;;14.35;67.12;100612.88;4960431;28;20043;-80
2023/01/01 10:21:10;;;;;;;5.97;3.90;;;;;;;14.36;66.67;100614.59;4973076;28;20094;-83
2023/01/01 10:23:48;;;;;;;5.35;4.05;;;;;;;14.42;67.45;100616.16;4941630;28;20055;-82
2023/01/01 10:26:17;;;;;;;8.27;3.90;;;;;;;14.37;66.92;100618.13;4940845;28;20641;-83
2023/01/01 10:28:56;;;;;;;6.70;3.60;;;;;;;14.43;67.10;100619.69;4971436;28;20077;-82
2023/01/01 10:31:32;;;;;;;7.40;3.72;;;;;;;14.42;67.48;100626.81;4936593;28;20693;-83
2023/01/01 10:34:15;;;;;;;7.30;3.85;;;;;;;14.47;68.57;100608.94;4955480;28;20043;-82
2023/01/01 10:36:45;;;;;;;6.28;3.55;;;;;;;14.43;68.12;100617.91;4968743;28;20055;-82
2023/01/01 10:39:14;;;;;;;6.47;4.07;;;;;;;14.44;68.41;100630.25;4954861;28;20131;-81
2023/01/01 10:41:41;;;;;;;6.75;3.90;;;;;;;14.41;68.52;100633.03;4951565;28;20057;-81
2023/01/01 10:44:09;;;;;;;6.22;3.85;;;;;;;14.40;67.81;100633.97;4949672;28;20536;-82
2023/01/01 10:46:44;;;;;;;7.75;4.47;;;;;;;14.41;67.48;100640.16;4952498;28;20490;-82
2023/01/01 10:49:12;;;;;;;5.78;3.58;;;;;;;14.45;68.62;100637.34;4972148;28;20038;-81
2023/01/01 10:51:50;;;;;;;6.10;3.95;;;;;;;14.48;69.10;100628.41;4934918;28;20082;-84
2023/01/01 10:54:43;;;;;;;7.07;4.13;;;;;;;14.45;68.93;100642.66;4957901;28;20042;-82
2023/01/01 10:57:15;;;;;;;7.38;4.10;;;;;;;14.50;68.54;100643.38;4939985;28;20055;-83
2023/01/01 10:59:43;;;;;;;7.18;4.65;;;;;;;14.48;69.55;100655.00;4956717;28;20082;-81
2023/01/01 11:02:27;;;;;;;7.88;4.03;;;;;;;14.40;69.00;100651.72;4951254;28;20054;-82
2023/01/01 11:05:14;;;;;;;6.78;3.80;;;;;;;14.46;69.12;100657.72;4965791;28;20059;-84
2023/01/01 11:07:47;;;;;;;5.82;3.75;;;;;;;14.46;69.42;100665.69;4964130;28;20039;-83
2023/01/01 11:10:20;;;;;;;9.80;3.60;;;;;;;14.45;69.13;100677.22;4940738;28;20571;-83
2023/01/01 11:12:47;;;;;;;6.20;4.55;;;;;;;14.55;69.47;100680.44;4937452;28;20043;-83
2023/01/01 11:15:39;;;;;;;7.32;3.75;;;;;;;14.69;68.27;100678.13;4943677;28;20142;-83
2023/01/01 11:18:19;;;;;;;8.18;6.00;;;;;;;14.72;67.99;100666.53;4938567;28;20038;-83
2023/01/01 11:20:56;;;;;;;8.38;5.40;;;;;;;14.77;67.14;100672.50;4933774;28;20041;-83
2023/01/01 11:23:40;;;;;;;8.35;4.55;;;;;;;14.83;67.81;100657.19;4929767;28;20047;-84
2023/01/01 11:26:16;;;;;;;9.10;5.35;;;;;;;14.81;66.85;100672.34;4947023;28;21342;-84
2023/01/01 11:29:01;;;;;;;7.28;3.42;;;;;;;14.82;67.02;100657.25;4969328;28;20039;-85
2023/01/01 11:31:38;;;;;;;5.82;3.72;;;;;;;14.83;67.07;100672.28;4974567;28;20077;-84
2023/01/01 11:34:25;;;;;;;6.13;3.28;;;;;;;14.83;67.18;100653.69;4952519;28;20713;-83
2023/01/01 11:36:52;;;;;;;9.15;3.75;;;;;;;14.83;67.54;100669.63;4953569;28;20054;-85
2023/01/01 11:39:25;;;;;;;6.72;3.72;;;;;;;14.79;66.46;100684.81;4948506;28;20051;-85
2023/01/01 11:41:55;;;;;;;6.63;3.63;;;;;;;14.86;67.19;100685.47;4934633;28;20066;-85
2023/01/01 11:44:38;;;;;;;6.97;3.53;;;;;;;14.81;66.70;100685.66;4962366;28;20055;-82
2023/01/01 11:47:06;;;;;;;6.97;3.75;;;;;;;14.79;66.26;100681.28;4964970;28;20162;-86
2023/01/01 11:49:33;;;;;;;7.35;3.85;;;;;;;14.75;68.36;100685.88;4950233;28;20039;-85